Time;durP1;ratioP1;P1;durP2;ratioP2;P2;SDS_P1;SDS_P2;PMS_P1;PMS_P2;Temp;Humidity;BMP_temperature;BMP_pressure;BME280_temperature;BME280_humidity;BME280_pressure;Samples;Min_cycle;Max_cycle;Signal;HPM_P1;HPM_P2
2022/11/13 00:00:24;;;;;;;1.63;1.08;;;;;;;;;;5091550;28;20040;-87
2022/11/13 00:02:49;;;;;;;1.30;0.93;;;;;;;;;;5091037;28;20031;-85
2022/11/13 00:05:15;;;;;;;1.33;0.82;;;;;;;;;;5091665;28;20054;-85
2022/11/13 00:07:40;;;;;;;0.57;0.40;;;;;;;;;;5090529;28;20031;-84
2022/11/13 00:10:06;;;;;;;2.15;1.23;;;;;;;;;;5092167;28;20024;-84
2022/11/13 00:12:31;;;;;;;0.77;0.55;;;;;;;;;;5091390;28;20028;-84
2022/11/13 00:14:57;;;;;;;1.05;0.95;;;;;;;;;;5091771;28;20034;-86
2022/11/13 00:17:22;;;;;;;3.13;1.30;;;;;;;;;;5090047;28;20028;-85
2022/11/13 00:19:47;;;;;;;3.10;0.80;;;;;;;;;;5089084;28;20067;-83
2022/11/13 00:22:13;;;;;;;0.73;0.70;;;;;;;;;;5091927;28;20027;-83
2022/11/13 00:24:38;;;;;;;1.60;1.08;;;;;;;;;;5090498;28;20024;-86
2022/11/13 00:27:04;;;;;;;1.90;1.60;;;;;;;;;;5090611;28;20107;-86
2022/11/13 00:29:29;;;;;;;1.20;0.47;;;;;;;;;;5091596;28;20070;-86
2022/11/13 00:31:54;;;;;;;2.78;1.48;;;;;;;;;;5090159;28;20518;-85
2022/11/13 00:34:20;;;;;;;0.95;0.73;;;;;;;;;;5091502;28;20078;-85
2022/11/13 00:36:46;;;;;;;2.70;2.00;;;;;;;;;;5089528;28;20503;-85
2022/11/13 00:39:12;;;;;;;1.73;1.23;;;;;;;;;;5091613;28;20032;-86
2022/11/13 00:41:37;;;;;;;1.50;1.33;;;;;;;;;;5088205;28;20032;-84
2022/11/13 00:44:03;;;;;;;2.15;1.00;;;;;;;;;;5091342;28;20032;-85
2022/11/13 00:46:29;;;;;;;1.23;1.10;;;;;;;;;;5091762;28;20012;-85
2022/11/13 00:48:54;;;;;;;2.15;1.20;;;;;;;;;;5085640;28;20032;-84
2022/11/13 00:51:20;;;;;;;4.90;2.05;;;;;;;;;;5090345;28;20031;-84
2022/11/13 00:53:46;;;;;;;3.28;1.90;;;;;;;;;;5086673;28;20032;-86
2022/11/13 00:56:11;;;;;;;4.60;2.03;;;;;;;;;;5090081;28;20082;-85
2022/11/13 00:58:36;;;;;;;1.20;1.10;;;;;;;;;;5090224;28;20065;-85
2022/11/13 01:01:14;;;;;;;2.45;1.88;;;;;;;;;;5091721;28;20108;-84
2022/11/13 01:03:40;;;;;;;2.47;1.75;;;;;;;;;;5091487;28;20028;-87
2022/11/13 01:06:23;;;;;;;2.97;1.67;;;;;;;;;;5091392;28;20039;-85
2022/11/13 01:08:49;;;;;;;2.35;1.30;;;;;;;;;;5087535;28;20050;-86
2022/11/13 01:11:18;;;;;;;3.30;1.58;;;;;;;;;;5089370;28;20515;-86
2022/11/13 01:13:46;;;;;;;2.47;2.08;;;;;;;;;;5090279;28;20024;-86
2022/11/13 01:16:13;;;;;;;2.90;1.63;;;;;;;;;;5091129;28;20436;-85
2022/11/13 01:18:40;;;;;;;2.50;1.30;;;;;;;;;;5089368;28;20035;-84
2022/11/13 01:21:08;;;;;;;2.17;1.33;;;;;;;;;;5085789;28;20024;-86
2022/11/13 01:23:34;;;;;;;1.63;1.33;;;;;;;;;;5087703;28;20024;-84
2022/11/13 01:26:16;;;;;;;1.90;1.25;;;;;;;;;;5087265;28;20043;-86
2022/11/13 01:28:43;;;;;;;1.60;1.10;;;;;;;;;;5092282;28;20494;-86
2022/11/13 01:31:15;;;;;;;2.45;1.33;;;;;;;;;;5089143;28;20035;-85
2022/11/13 01:33:41;;;;;;;2.50;1.50;;;;;;;;;;5094746;28;20092;-84
2022/11/13 01:36:11;;;;;;;3.20;2.28;;;;;;;;;;5093348;28;20039;-85
2022/11/13 01:38:36;;;;;;;;;;;;;;;;;;5092877;28;20052;-84
2022/11/13 01:41:02;;;;;;;2.42;2.00;;;;;;;;;;5087768;28;19954;-87
2022/11/13 01:43:34;;;;;;;4.40;2.65;;;;;;;;;;5093764;28;20035;-85
2022/11/13 01:45:59;;;;;;;3.30;2.00;;;;;;;;;;5094531;28;20024;-85
2022/11/13 01:48:33;;;;;;;4.18;2.60;;;;;;;;;;5087859;28;20133;-86
2022/11/13 01:50:58;;;;;;;2.65;1.60;;;;;;;;;;5088605;28;20069;-85
2022/11/13 01:53:24;;;;;;;2.38;1.98;;;;;;;;;;5087017;28;20024;-85
2022/11/13 01:55:50;;;;;;;2.92;2.25;;;;;;;;;;5093081;28;20028;-86
2022/11/13 01:58:16;;;;;;;3.65;2.33;;;;;;;;;;5093517;28;20031;-85
2022/11/13 02:00:41;;;;;;;2.40;1.30;;;;;;;;;;5089397;28;20023;-85
2022/11/13 02:03:06;;;;;;;3.90;2.42;;;;;;;;;;5093446;28;20035;-85
2022/11/13 02:05:32;;;;;;;3.72;2.15;;;;;;;;;;5093882;28;20353;-85
2022/11/13 02:07:58;;;;;;;2.80;1.58;;;;;;;;;;5093631;28;20047;-86
2022/11/13 02:10:24;;;;;;;3.85;2.38;;;;;;;;;;5086760;28;20060;-83
2022/11/13 02:12:51;;;;;;;4.05;2.53;;;;;;;;;;5083959;28;20020;-82
2022/11/13 02:15:22;;;;;;;7.65;2.03;;;;;;;;;;5089339;28;20028;-82
2022/11/13 02:17:54;;;;;;;3.42;2.45;;;;;;;;;;5090874;28;20464;-84
2022/11/13 02:20:29;;;;;;;2.42;1.38;;;;;;;;;;5086354;28;20543;-82
2022/11/13 02:23:13;;;;;;;1.65;1.30;;;;;;;;;;5086598;28;20039;-85
2022/11/13 02:25:40;;;;;;;2.78;1.98;;;;;;;;;;5087028;28;20020;-84
2022/11/13 02:28:05;;;;;;;3.75;2.05;;;;;;;;;;5087861;28;20026;-82
2022/11/13 02:30:33;;;;;;;5.22;2.42;;;;;;;;;;5090813;28;20519;-83
2022/11/13 02:32:58;;;;;;;3.03;2.47;;;;;;;;;;5084092;28;20040;-83
2022/11/13 02:35:33;;;;;;;3.42;2.22;;;;;;;;;;5093000;28;20082;-85
2022/11/13 02:38:02;;;;;;;3.13;1.77;;;;;;;;;;5093391;28;20039;-85
2022/11/13 02:40:28;;;;;;;2.95;2.38;;;;;;;;;;5090439;28;20509;-84
2022/11/13 02:42:54;;;;;;;2.28;1.40;;;;;;;;;;5093831;28;20024;-85
2022/11/13 02:45:20;;;;;;;2.53;2.00;;;;;;;;;;5090108;28;20471;-88
2022/11/13 02:47:45;;;;;;;2.47;1.77;;;;;;;;;;5093781;28;20054;-84
2022/11/13 02:50:11;;;;;;;2.40;2.03;;;;;;;;;;5090380;28;20027;-84
2022/11/13 02:52:36;;;;;;;3.53;1.95;;;;;;;;;;5090869;28;20024;-84
2022/11/13 02:55:03;;;;;;;5.18;2.78;;;;;;;;;;5091497;28;20464;-85
2022/11/13 02:57:28;;;;;;;2.97;2.30;;;;;;;;;;5091734;28;20040;-85
2022/11/13 02:59:54;;;;;;;3.10;1.73;;;;;;;;;;5093275;28;20035;-86
2022/11/13 03:02:19;;;;;;;3.45;3.00;;;;;;;;;;5091214;28;20055;-85
2022/11/13 03:04:45;;;;;;;4.47;2.35;;;;;;;;;;5092732;28;20020;-84
2022/11/13 03:07:12;;;;;;;5.50;2.88;;;;;;;;;;5087989;28;20021;-86
2022/11/13 03:09:39;;;;;;;8.32;3.47;;;;;;;;;;5088485;28;20422;-85
2022/11/13 03:12:06;;;;;;;4.03;2.88;;;;;;;;;;5088671;28;20229;-85
2022/11/13 03:14:31;;;;;;;4.68;2.20;;;;;;;;;;5089176;28;20020;-84
2022/11/13 03:16:57;;;;;;;3.65;2.47;;;;;;;;;;5091727;28;20024;-85
2022/11/13 03:19:22;;;;;;;3.63;2.13;;;;;;;;;;5120989;27;20115;-86
2022/11/13 03:21:48;;;;;;;6.50;2.92;;;;;;;;;;5090928;28;20070;-85
2022/11/13 03:24:13;;;;;;;4.50;2.95;;;;;;;;;;5090939;28;20027;-84
2022/11/13 03:26:38;;;;;;;4.30;2.08;;;;;;;;;;5089528;28;20028;-86
2022/11/13 03:29:04;;;;;;;4.22;2.95;;;;;;;;;;5089129;28;20505;-85
2022/11/13 03:31:29;;;;;;;4.50;3.05;;;;;;;;;;5091384;28;20020;-83
2022/11/13 03:33:55;;;;;;;3.33;2.47;;;;;;;;;;5088262;28;20113;-85
2022/11/13 03:36:20;;;;;;;5.43;2.42;;;;;;;;;;5092193;28;20081;-83
2022/11/13 03:38:46;;;;;;;3.67;2.97;;;;;;;;;;5091928;28;20036;-84
2022/11/13 03:41:13;;;;;;;5.63;3.65;;;;;;;;;;5090386;28;20024;-84
2022/11/13 03:43:39;;;;;;;4.97;3.00;;;;;;;;;;5089346;28;20027;-83
2022/11/13 03:46:05;;;;;;;4.03;2.30;;;;;;;;;;5090735;28;20020;-85
2022/11/13 03:48:32;;;;;;;2.58;2.35;;;;;;;;;;5092128;28;20498;-86
2022/11/13 03:50:57;;;;;;;5.13;2.60;;;;;;;;;;5091339;28;20480;-84
2022/11/13 03:53:23;;;;;;;2.33;1.92;;;;;;;;;;5089961;28;20129;-83
2022/11/13 03:55:48;;;;;;;3.42;1.95;;;;;;;;;;5089429;28;20028;-84
2022/11/13 03:58:13;;;;;;;5.63;3.38;;;;;;;;;;5091576;28;20028;-87
2022/11/13 04:00:40;;;;;;;3.78;2.30;;;;;;;;;;5085153;28;20111;-85
2022/11/13 04:03:06;;;;;;;3.92;2.70;;;;;;;;;;5090705;28;20023;-84
2022/11/13 04:05:32;;;;;;;3.00;2.47;;;;;;;;;;5088889;28;20021;-81
2022/11/13 04:07:57;;;;;;;6.55;2.90;;;;;;;;;;5088483;28;20023;-83
2022/11/13 04:10:23;;;;;;;5.30;2.83;;;;;;;;;;5089551;28;20020;-85
2022/11/13 04:12:48;;;;;;;3.13;1.88;;;;;;;;;;5091236;28;20019;-84
2022/11/13 04:15:14;;;;;;;3.10;2.45;;;;;;;;;;5086759;28;20066;-86
2022/11/13 04:17:39;;;;;;;5.90;3.42;;;;;;;;;;5091389;28;20427;-85
2022/11/13 04:20:05;;;;;;;3.38;2.17;;;;;;;;;;5085124;28;20024;-84
2022/11/13 04:22:30;;;;;;;4.75;3.17;;;;;;;;;;5090737;28;20019;-84
2022/11/13 04:24:56;;;;;;;1.92;1.45;;;;;;;;;;5088224;28;20036;-88
2022/11/13 04:27:21;;;;;;;2.80;2.03;;;;;;;;;;5089708;28;20102;-84
2022/11/13 04:29:47;;;;;;;3.10;2.63;;;;;;;;;;5089862;28;20081;-87
2022/11/13 04:32:12;;;;;;;3.97;2.35;;;;;;;;;;5091311;28;20467;-85
2022/11/13 04:34:37;;;;;;;5.40;3.17;;;;;;;;;;5087237;28;20044;-85
2022/11/13 04:37:03;;;;;;;4.15;2.88;;;;;;;;;;5090075;28;20064;-86
2022/11/13 04:39:28;;;;;;;6.63;3.63;;;;;;;;;;5086576;28;20032;-84
2022/11/13 04:44:37;;;;;;;4.90;3.33;;;;;;;;;;5089005;28;20039;-85
2022/11/13 04:47:03;;;;;;;5.03;3.40;;;;;;;;;;5091565;28;20467;-83
2022/11/13 04:49:28;;;;;;;4.70;2.55;;;;;;;;;;5088780;28;20031;-85
2022/11/13 04:51:54;;;;;;;5.50;3.28;;;;;;;;;;5090396;28;20024;-83
2022/11/13 04:54:19;;;;;;;5.05;2.80;;;;;;;;;;5088406;28;20099;-83
2022/11/13 04:56:45;;;;;;;4.60;3.00;;;;;;;;;;5088489;28;20024;-84
2022/11/13 04:59:10;;;;;;;6.88;4.25;;;;;;;;;;5088868;28;20052;-82
2022/11/13 05:01:35;;;;;;;5.07;2.72;;;;;;;;;;5091307;28;20383;-86
2022/11/13 05:04:01;;;;;;;4.38;2.28;;;;;;;;;;5093701;28;20032;-85
2022/11/13 05:06:27;;;;;;;4.70;3.00;;;;;;;;;;5089923;28;20527;-84
2022/11/13 05:08:53;;;;;;;4.35;2.47;;;;;;;;;;5093671;28;20115;-85
2022/11/13 05:11:18;;;;;;;8.35;3.17;;;;;;;;;;5090921;28;20085;-83
2022/11/13 05:13:44;;;;;;;2.83;2.13;;;;;;;;;;5093456;28;20114;-84
2022/11/13 05:16:11;;;;;;;2.70;1.95;;;;;;;;;;5094520;28;20028;-85
2022/11/13 05:18:37;;;;;;;4.82;3.42;;;;;;;;;;5092500;28;20031;-84
2022/11/13 05:21:05;;;;;;;4.65;2.55;;;;;;;;;;5090038;28;20032;-85
2022/11/13 05:23:31;;;;;;;3.53;2.85;;;;;;;;;;5091126;28;20110;-82
2022/11/13 05:26:03;;;;;;;4.93;2.83;;;;;;;;;;5088964;28;20059;-82
2022/11/13 05:28:28;;;;;;;6.40;4.18;;;;;;;;;;5092214;28;20468;-83
2022/11/13 05:31:04;;;;;;;4.75;2.83;;;;;;;;;;5090292;28;20035;-86
2022/11/13 05:33:29;;;;;;;4.03;2.38;;;;;;;;;;5091992;28;20035;-84
2022/11/13 05:35:59;;;;;;;5.97;3.70;;;;;;;;;;5091356;28;20044;-83
2022/11/13 05:38:24;;;;;;;10.40;3.47;;;;;;;;;;5091853;28;20491;-83
2022/11/13 05:40:50;;;;;;;7.70;4.13;;;;;;;;;;5090737;28;20024;-83
2022/11/13 05:43:15;;;;;;;4.03;3.28;;;;;;;;;;5092584;28;20020;-84
2022/11/13 05:45:40;;;;;;;5.07;3.30;;;;;;;;;;5091282;28;20023;-86
2022/11/13 05:48:06;;;;;;;6.65;4.03;;;;;;;;;;5092732;28;20120;-82
2022/11/13 05:50:31;;;;;;;6.75;4.45;;;;;;;;;;5093399;28;20027;-86
2022/11/13 05:52:57;;;;;;;6.53;3.75;;;;;;;;;;5093755;28;20024;-83
2022/11/13 05:55:22;;;;;;;4.47;2.50;;;;;;;;;;5091312;28;20099;-86
2022/11/13 05:57:47;;;;;;;7.60;3.55;;;;;;;;;;5091483;28;20073;-85
2022/11/13 06:00:14;;;;;;;6.00;3.53;;;;;;;;;;5090215;28;20019;-86
2022/11/13 06:02:39;;;;;;;10.63;5.45;;;;;;;;;;5093150;28;20110;-85
2022/11/13 06:05:05;;;;;;;5.40;3.95;;;;;;;;;;5091116;28;20048;-84
2022/11/13 06:07:30;;;;;;;8.73;5.95;;;;;;;;;;5093597;28;20052;-84
2022/11/13 06:09:56;;;;;;;5.88;3.47;;;;;;;;;;5090839;28;20036;-82
2022/11/13 06:12:21;;;;;;;7.35;4.25;;;;;;;;;;5087449;28;20081;-85
2022/11/13 06:14:47;;;;;;;7.13;4.13;;;;;;;;;;5090356;28;20024;-82
2022/11/13 06:17:12;;;;;;;6.00;3.80;;;;;;;;;;5090892;28;20160;-84
2022/11/13 06:19:37;;;;;;;7.72;3.80;;;;;;;;;;5090454;28;20027;-86
2022/11/13 06:22:03;;;;;;;7.03;3.50;;;;;;;;;;5092240;28;20036;-85
2022/11/13 06:24:28;;;;;;;7.65;4.68;;;;;;;;;;5092545;28;20074;-86
2022/11/13 06:26:54;;;;;;;3.80;2.97;;;;;;;;;;5092346;28;20073;-84
2022/11/13 06:29:19;;;;;;;4.93;3.63;;;;;;;;;;5092173;28;20032;-85
2022/11/13 06:31:44;;;;;;;8.00;3.40;;;;;;;;;;5092135;28;20023;-86
2022/11/13 06:34:10;;;;;;;7.22;4.70;;;;;;;;;;5090693;28;20050;-87
2022/11/13 06:36:36;;;;;;;5.22;3.78;;;;;;;;;;5093089;28;20468;-83
2022/11/13 06:39:05;;;;;;;5.05;2.85;;;;;;;;;;5093375;28;20031;-84
2022/11/13 06:41:31;;;;;;;6.00;3.95;;;;;;;;;;5088755;28;20050;-81
2022/11/13 06:43:58;;;;;;;4.85;3.42;;;;;;;;;;5092943;28;20059;-82
2022/11/13 06:46:26;;;;;;;6.68;3.83;;;;;;;;;;5089909;28;20454;-83
2022/11/13 06:48:52;;;;;;;6.80;4.40;;;;;;;;;;5090647;28;20085;-83
2022/11/13 06:51:22;;;;;;;6.03;3.95;;;;;;;;;;5090951;28;20032;-85
2022/11/13 06:53:49;;;;;;;6.43;4.38;;;;;;;;;;5093098;28;20043;-83
2022/11/13 06:56:15;;;;;;;6.10;3.53;;;;;;;;;;5093151;28;20476;-86
2022/11/13 06:58:42;;;;;;;6.40;4.47;;;;;;;;;;5090549;28;20030;-85
2022/11/13 07:01:19;;;;;;;7.32;3.88;;;;;;;;;;5092400;28;20035;-85
2022/11/13 07:03:45;;;;;;;7.45;4.20;;;;;;;;;;5089325;28;20454;-83
2022/11/13 07:06:17;;;;;;;6.60;3.40;;;;;;;;;;5090454;28;20089;-83
2022/11/13 07:08:44;;;;;;;6.10;3.33;;;;;;;;;;5089417;28;20080;-84
2022/11/13 07:11:12;;;;;;;4.95;3.72;;;;;;;;;;5088259;28;20039;-86
2022/11/13 07:13:38;;;;;;;6.47;4.00;;;;;;;;;;5090051;28;20020;-84
2022/11/13 07:16:05;;;;;;;5.63;4.20;;;;;;;;;;5088177;28;20032;-84
2022/11/13 07:18:31;;;;;;;6.30;3.10;;;;;;;;;;5089919;28;20047;-84
2022/11/13 07:20:57;;;;;;;6.57;3.72;;;;;;;;;;5089457;28;20035;-84
2022/11/13 07:23:23;;;;;;;5.45;2.83;;;;;;;;;;5090184;28;20028;-84
2022/11/13 07:25:52;;;;;;;5.80;3.45;;;;;;;;;;5090849;28;20465;-85
2022/11/13 07:28:17;;;;;;;6.22;4.03;;;;;;;;;;5091598;28;20020;-84
2022/11/13 07:30:42;;;;;;;6.25;3.75;;;;;;;;;;5091282;28;20486;-85
2022/11/13 07:33:08;;;;;;;7.03;4.10;;;;;;;;;;5089330;28;20047;-84
2022/11/13 07:35:33;;;;;;;7.18;3.78;;;;;;;;;;5091710;28;20048;-83
2022/11/13 07:38:00;;;;;;;6.18;4.00;;;;;;;;;;5089884;28;20055;-84
2022/11/13 07:40:25;;;;;;;6.75;3.85;;;;;;;;;;5090120;28;20028;-83
2022/11/13 07:43:01;;;;;;;4.65;2.90;;;;;;;;;;5089174;28;20178;-84
2022/11/13 07:45:27;;;;;;;10.13;4.75;;;;;;;;;;5089208;28;20024;-84
2022/11/13 07:48:00;;;;;;;7.88;3.75;;;;;;;;;;5090281;28;20031;-86
2022/11/13 07:50:28;;;;;;;8.00;4.43;;;;;;;;;;5088829;28;20028;-85
2022/11/13 07:52:59;;;;;;;6.28;3.67;;;;;;;;;;5086103;28;20047;-81
2022/11/13 07:55:24;;;;;;;5.68;3.88;;;;;;;;;;5083570;28;20024;-82
2022/11/13 07:57:49;;;;;;;6.20;3.72;;;;;;;;;;5090166;28;20024;-82
2022/11/13 08:00:16;;;;;;;7.97;4.00;;;;;;;;;;5087494;28;20517;-82
2022/11/13 08:02:42;;;;;;;12.15;8.10;;;;;;;;;;5085341;28;20483;-82
2022/11/13 08:05:08;;;;;;;11.32;6.32;;;;;;;;;;5087175;28;20063;-82
2022/11/13 08:07:33;;;;;;;8.30;5.10;;;;;;;;;;5087101;28;20052;-81
2022/11/13 08:09:58;;;;;;;15.07;6.88;;;;;;;;;;5086635;28;20028;-80
2022/11/13 08:12:24;;;;;;;6.10;3.45;;;;;;;;;;5089495;28;20535;-81
2022/11/13 08:14:49;;;;;;;9.40;4.63;;;;;;;;;;5090950;28;20486;-81
2022/11/13 08:17:14;;;;;;;5.38;2.97;;;;;;;;;;5087663;28;20040;-83
2022/11/13 08:19:40;;;;;;;8.77;5.10;;;;;;;;;;5086178;28;20115;-83
2022/11/13 08:22:05;;;;;;;8.93;5.20;;;;;;;;;;5088670;28;20475;-81
2022/11/13 08:24:31;;;;;;;4.85;3.65;;;;;;;;;;5084067;28;20035;-82
2022/11/13 08:26:57;;;;;;;14.40;7.13;;;;;;;;;;5084596;28;20059;-80
2022/11/13 08:29:22;;;;;;;32.83;17.08;;;;;;;;;;5086311;28;20026;-81
2022/11/13 08:31:48;;;;;;;8.32;4.93;;;;;;;;;;5088372;28;20060;-82
2022/11/13 08:34:13;;;;;;;8.25;4.93;;;;;;;;;;5087199;28;20495;-84
2022/11/13 08:36:39;;;;;;;10.10;4.53;;;;;;;;;;5090121;28;20028;-83
2022/11/13 08:39:04;;;;;;;6.97;4.70;;;;;;;;;;5091729;28;20030;-84
2022/11/13 08:41:30;;;;;;;7.90;4.13;;;;;;;;;;5090495;28;20472;-84
2022/11/13 08:43:55;;;;;;;8.02;3.80;;;;;;;;;;5088927;28;20027;-86
2022/11/13 08:46:20;;;;;;;6.85;3.45;;;;;;;;;;5091843;28;20039;-82
2022/11/13 08:48:46;;;;;;;9.23;4.65;;;;;;;;;;5090352;28;20532;-82
2022/11/13 08:51:11;;;;;;;6.80;3.00;;;;;;;;;;5088934;28;20024;-82
2022/11/13 08:53:37;;;;;;;9.00;4.40;;;;;;;;;;5089469;28;20020;-81
2022/11/13 08:56:02;;;;;;;8.40;4.15;;;;;;;;;;5090157;28;20024;-82
2022/11/13 08:58:28;;;;;;;7.82;4.22;;;;;;;;;;5087484;28;20059;-81
2022/11/13 09:00:59;;;;;;;5.03;3.25;;;;;;;;;;5087660;28;20035;-82
2022/11/13 09:03:24;;;;;;;17.30;9.18;;;;;;;;;;5086076;28;20583;-81
2022/11/13 09:05:50;;;;;;;14.77;7.70;;;;;;;;;;5086442;28;20115;-82
2022/11/13 09:08:15;;;;;;;8.27;5.47;;;;;;;;;;5089596;28;20078;-83
2022/11/13 09:10:40;;;;;;;7.40;4.13;;;;;;;;;;5086310;28;20053;-80
2022/11/13 09:13:07;;;;;;;6.10;3.25;;;;;;;;;;5086787;28;20024;-82
2022/11/13 09:15:33;;;;;;;10.65;5.05;;;;;;;;;;5086579;28;20055;-80
2022/11/13 09:17:59;;;;;;;4.93;3.40;;;;;;;;;;5085720;28;20024;-80
2022/11/13 09:20:26;;;;;;;7.22;5.03;;;;;;;;;;5087793;28;20382;-82
2022/11/13 09:23:03;;;;;;;6.05;3.78;;;;;;;;;;5089193;28;20421;-82
2022/11/13 09:25:30;;;;;;;7.68;3.60;;;;;;;;;;5088399;28;20032;-83
2022/11/13 09:27:59;;;;;;;8.02;4.20;;;;;;;;;;5083546;28;20058;-81
2022/11/13 09:30:26;;;;;;;5.10;3.35;;;;;;;;;;5088592;28;20081;-80
2022/11/13 09:32:56;;;;;;;7.20;3.92;;;;;;;;;;5084921;28;20476;-80
2022/11/13 09:35:33;;;;;;;6.50;3.75;;;;;;;;;;5084497;28;20044;-79
2022/11/13 09:38:18;;;;;;;5.13;2.72;;;;;;;;;;5085321;28;20036;-80
2022/11/13 09:40:53;;;;;;;6.13;3.42;;;;;;;;;;5082243;28;20115;-80
2022/11/13 09:43:42;;;;;;;9.10;4.40;;;;;;;;;;5082401;28;20044;-82
2022/11/13 09:46:24;;;;;;;5.57;2.67;;;;;;;;;;5085628;28;20021;-83
2022/11/13 09:49:00;;;;;;;8.98;4.35;;;;;;;;;;5084873;28;20031;-81
2022/11/13 09:51:35;;;;;;;7.13;3.90;;;;;;;;;;5092428;28;20375;-81
2022/11/13 09:54:04;;;;;;;6.53;3.60;;;;;;;;;;5091890;28;20076;-81
2022/11/13 09:56:38;;;;;;;11.23;4.70;;;;;;;;;;5087780;28;20401;-81
2022/11/13 09:59:21;;;;;;;8.60;4.28;;;;;;;;;;5085111;28;20248;-81
2022/11/13 10:01:56;;;;;;;5.45;3.22;;;;;;;;;;5089177;28;20020;-82
2022/11/13 10:04:45;;;;;;;7.00;3.95;;;;;;;;;;5088442;28;20016;-83
2022/11/13 10:07:26;;;;;;;6.22;3.55;;;;;;;;;;5088222;28;20039;-81
2022/11/13 10:10:22;;;;;;;5.30;3.13;;;;;;;;;;5089805;28;20024;-81
2022/11/13 10:12:51;;;;;;;13.55;3.58;;;;;;;;;;5091049;28;20028;-82
2022/11/13 10:15:17;;;;;;;8.65;3.40;;;;;;;;;;5088819;28;20476;-81
2022/11/13 10:17:49;;;;;;;6.82;3.80;;;;;;;;;;5090103;28;20057;-81
2022/11/13 10:20:24;;;;;;;6.50;3.72;;;;;;;;;;5094033;28;20036;-83
2022/11/13 10:22:54;;;;;;;7.35;3.33;;;;;;;;;;5092004;28;21465;-80
2022/11/13 10:25:23;;;;;;;5.00;3.08;;;;;;;;;;5092943;28;20404;-82
2022/11/13 10:28:00;;;;;;;6.73;3.47;;;;;;;;;;5092940;28;20028;-82
2022/11/13 10:33:47;;;;;;;9.02;4.88;;;;;;;;;;5092333;28;20106;-81
2022/11/13 10:36:41;;;;;;;8.82;4.25;;;;;;;;;;5092789;28;20040;-82
2022/11/13 10:39:08;;;;;;;8.52;5.68;;;;;;;;;;5107834;28;20660;-83
2022/11/13 10:41:45;;;;;;;6.57;4.03;;;;;;;;;;5087451;28;20399;-82
2022/11/13 10:44:40;;;;;;;6.22;4.28;;;;;;;;;;5093516;28;20031;-82
2022/11/13 10:47:17;;;;;;;7.10;4.57;;;;;;;;;;5078493;28;20036;-81
2022/11/13 10:49:42;;;;;;;6.72;4.60;;;;;;;;;;5093777;28;20035;-84
2022/11/13 10:52:17;;;;;;;8.48;4.05;;;;;;;;;;5091695;28;20032;-83
2022/11/13 10:54:43;;;;;;;6.90;3.75;;;;;;;;;;5092446;28;20058;-84
2022/11/13 10:57:28;;;;;;;9.55;5.07;;;;;;;;;;5091412;28;20052;-83
2022/11/13 10:59:53;;;;;;;7.50;4.28;;;;;;;;;;5089179;28;20020;-84
2022/11/13 11:02:21;;;;;;;6.78;3.67;;;;;;;;;;5093312;28;20054;-84
2022/11/13 11:04:47;;;;;;;9.23;4.53;;;;;;;;;;5091870;28;20077;-83
2022/11/13 11:07:19;;;;;;;6.97;4.45;;;;;;;;;;5091565;28;20020;-83
2022/11/13 11:09:45;;;;;;;6.22;3.58;;;;;;;;;;5090728;28;20027;-82
2022/11/13 11:12:19;;;;;;;6.82;3.30;;;;;;;;;;5092702;28;20031;-82
2022/11/13 11:14:59;;;;;;;8.57;4.13;;;;;;;;;;5090122;28;20434;-82
2022/11/13 11:17:41;;;;;;;9.30;4.65;;;;;;;;;;5085457;28;20036;-81
2022/11/13 11:20:25;;;;;;;8.27;4.28;;;;;;;;;;5089687;28;20107;-82
2022/11/13 11:22:57;;;;;;;8.38;3.95;;;;;;;;;;5090747;28;20027;-81
2022/11/13 11:25:38;;;;;;;8.98;5.18;;;;;;;;;;5090350;28;20107;-83
2022/11/13 11:28:06;;;;;;;6.53;3.65;;;;;;;;;;5090781;28;20028;-81
2022/11/13 11:30:39;;;;;;;7.43;3.95;;;;;;;;;;5092476;28;20055;-80
2022/11/13 11:33:26;;;;;;;7.50;4.18;;;;;;;;;;5090370;28;20028;-83
2022/11/13 11:36:28;;;;;;;5.60;3.90;;;;;;;;;;5091955;28;20075;-81
2022/11/13 11:39:04;;;;;;;8.73;5.13;;;;;;;;;;5077341;28;20044;-84
2022/11/13 11:41:45;;;;;;;7.68;4.15;;;;;;;;;;5090647;28;20392;-81
2022/11/13 11:44:32;;;;;;;9.40;5.72;;;;;;;;;;5092233;28;20039;-81
2022/11/13 11:46:57;;;;;;;7.47;4.18;;;;;;;;;;5091169;28;20055;-84
2022/11/13 11:49:25;;;;;;;6.47;3.80;;;;;;;;;;5092871;28;20036;-84
2022/11/13 11:52:13;;;;;;;11.00;5.22;;;;;;;;;;5086770;28;20077;-86
2022/11/13 11:55:18;;;;;;;7.68;4.18;;;;;;;;;;5089295;28;20020;-83
2022/11/13 11:58:19;;;;;;;5.82;3.58;;;;;;;;;;5091642;27;20429;-82
2022/11/13 12:00:51;;;;;;;4.93;3.67;;;;;;;;;;5090950;28;20020;-80
2022/11/13 12:03:34;;;;;;;7.75;4.53;;;;;;;;;;5091182;28;20028;-84
2022/11/13 12:06:11;;;;;;;6.47;4.65;;;;;;;;;;5088359;28;20024;-83
2022/11/13 12:09:04;;;;;;;11.73;6.55;;;;;;;;;;5087843;28;20032;-82
2022/11/13 12:11:33;;;;;;;11.02;6.95;;;;;;;;;;5085552;28;20361;-82
2022/11/13 12:14:17;;;;;;;8.27;4.40;;;;;;;;;;5088283;28;20500;-85
2022/11/13 12:17:03;;;;;;;9.45;4.82;;;;;;;;;;5087548;28;20063;-83
2022/11/13 12:19:50;;;;;;;8.63;4.68;;;;;;;;;;5089822;28;20028;-82
2022/11/13 12:22:45;;;;;;;8.63;4.47;;;;;;;;;;5090002;28;20077;-82
2022/11/13 12:25:14;;;;;;;8.18;4.68;;;;;;;;;;5089630;28;20039;-85
2022/11/13 12:27:58;;;;;;;6.75;4.40;;;;;;;;;;5089790;28;20082;-81
2022/11/13 12:30:37;;;;;;;9.68;4.88;;;;;;;;;;5087293;28;20410;-82
2022/11/13 12:33:44;;;;;;;9.57;5.28;;;;;;;;;;5090692;28;20019;-81
2022/11/13 12:36:11;;;;;;;13.88;7.15;;;;;;;;;;5074634;28;20043;-84
2022/11/13 12:39:11;;;;;;;9.32;5.38;;;;;;;;;;5091067;28;20038;-85
2022/11/13 12:41:40;;;;;;;;;;;;;;;;;;5086666;28;20075;-83
2022/11/13 12:44:18;;;;;;;7.55;4.32;;;;;;;;;;5091076;28;19965;-83
2022/11/13 12:46:44;;;;;;;8.57;4.38;;;;;;;;;;5090488;28;20399;-85
2022/11/13 12:49:23;;;;;;;8.05;4.20;;;;;;;;;;5088477;28;20032;-85
2022/11/13 12:52:01;;;;;;;8.67;4.83;;;;;;;;;;5089683;28;20024;-83
2022/11/13 12:54:27;;;;;;;7.57;4.05;;;;;;;;;;5089296;28;20035;-83
2022/11/13 12:57:07;;;;;;;8.00;4.45;;;;;;;;;;5090046;28;20052;-85
2022/11/13 12:59:38;;;;;;;8.45;4.93;;;;;;;;;;5088573;28;20028;-82
2022/11/13 13:02:06;;;;;;;9.10;4.45;;;;;;;;;;5083847;28;20029;-83
2022/11/13 13:04:56;;;;;;;5.88;3.38;;;;;;;;;;5084537;28;20114;-85
2022/11/13 13:07:24;;;;;;;7.28;4.57;;;;;;;;;;5088398;28;20016;-84
2022/11/13 13:10:09;;;;;;;6.65;3.72;;;;;;;;;;5089102;28;20105;-82
2022/11/13 13:12:43;;;;;;;8.18;4.45;;;;;;;;;;5088155;28;20034;-81
2022/11/13 13:15:23;;;;;;;11.10;6.18;;;;;;;;;;5085682;28;20383;-81
2022/11/13 13:18:23;;;;;;;10.77;6.95;;;;;;;;;;5085862;28;20380;-81
2022/11/13 13:21:06;;;;;;;5.80;4.22;;;;;;;;;;5077769;28;20036;-81
2022/11/13 13:23:52;;;;;;;8.23;5.05;;;;;;;;;;5088411;28;20028;-83
2022/11/13 13:26:24;;;;;;;8.07;4.88;;;;;;;;;;5092968;28;20155;-83
2022/11/13 13:28:54;;;;;;;8.57;4.50;;;;;;;;;;5088357;28;20396;-83
2022/11/13 13:31:48;;;;;;;7.95;4.22;;;;;;;;;;5123085;27;20024;-82
2022/11/13 13:34:29;;;;;;;9.02;4.38;;;;;;;;;;5089092;28;21466;-80
2022/11/13 13:37:10;;;;;;;10.43;5.85;;;;;;;;;;5090286;28;20028;-82
2022/11/13 13:40:07;;;;;;;20.80;9.75;;;;;;;;;;5088349;28;21354;-85
2022/11/13 13:43:11;;;;;;;14.35;7.80;;;;;;;;;;5054535;28;20121;-84
2022/11/13 13:45:44;;;;;;;8.43;5.50;;;;;;;;;;5091494;28;20036;-85
2022/11/13 13:48:12;;;;;;;12.32;5.35;;;;;;;;;;5092791;28;20032;-82
2022/11/13 13:50:42;;;;;;;9.55;6.07;;;;;;;;;;5091612;28;20036;-84
2022/11/13 13:53:13;;;;;;;10.80;5.45;;;;;;;;;;5090969;28;20089;-87
2022/11/13 13:55:46;;;;;;;11.77;5.93;;;;;;;;;;5091862;28;20048;-84
2022/11/13 13:58:16;;;;;;;8.10;4.80;;;;;;;;;;5089789;28;20028;-83
2022/11/13 14:00:42;;;;;;;11.73;5.32;;;;;;;;;;5093413;28;20020;-82
2022/11/13 14:03:19;;;;;;;8.60;5.75;;;;;;;;;;5088757;28;20120;-84
2022/11/13 14:05:44;;;;;;;8.30;5.43;;;;;;;;;;5091830;28;20103;-83
2022/11/13 14:08:18;;;;;;;6.60;4.03;;;;;;;;;;5091555;28;20119;-84
2022/11/13 14:10:45;;;;;;;8.52;4.60;;;;;;;;;;5090024;28;20438;-84
2022/11/13 14:13:12;;;;;;;8.20;4.60;;;;;;;;;;5090944;28;20069;-82
2022/11/13 14:15:38;;;;;;;12.65;5.90;;;;;;;;;;5088555;28;20082;-81
2022/11/13 14:18:17;;;;;;;12.43;4.35;;;;;;;;;;5093210;28;20472;-85
2022/11/13 14:21:09;;;;;;;8.15;4.57;;;;;;;;;;5091805;28;20039;-87
2022/11/13 14:23:45;;;;;;;8.57;5.10;;;;;;;;;;5088636;28;20451;-82
2022/11/13 14:26:11;;;;;;;9.82;5.53;;;;;;;;;;5089997;28;20031;-84
2022/11/13 14:29:03;;;;;;;7.63;4.88;;;;;;;;;;5089073;28;20103;-84
2022/11/13 14:31:31;;;;;;;7.70;5.15;;;;;;;;;;5086302;28;20440;-82
2022/11/13 14:34:00;;;;;;;9.57;5.80;;;;;;;;;;5088908;28;20071;-84
2022/11/13 14:36:31;;;;;;;9.38;5.82;;;;;;;;;;5091945;28;20055;-84
2022/11/13 14:38:57;;;;;;;7.68;5.53;;;;;;;;;;5086801;28;20413;-82
2022/11/13 14:41:37;;;;;;;8.18;4.65;;;;;;;;;;5087892;28;20028;-83
2022/11/13 14:44:03;;;;;;;8.45;4.53;;;;;;;;;;5090241;28;20032;-84
2022/11/13 14:46:30;;;;;;;10.63;6.82;;;;;;;;;;5089208;28;20098;-87
2022/11/13 14:48:56;;;;;;;7.65;4.57;;;;;;;;;;5088899;28;20032;-86
2022/11/13 14:51:25;;;;;;;7.88;4.88;;;;;;;;;;5091421;28;20088;-86
2022/11/13 14:54:05;;;;;;;7.38;3.70;;;;;;;;;;5092511;28;20036;-83
2022/11/13 14:56:37;;;;;;;7.30;4.07;;;;;;;;;;5092092;28;20051;-83
2022/11/13 14:59:13;;;;;;;8.68;4.72;;;;;;;;;;5093039;28;20023;-83
2022/11/13 15:01:39;;;;;;;6.93;4.68;;;;;;;;;;5090058;28;20384;-84
2022/11/13 15:04:04;;;;;;;8.05;4.78;;;;;;;;;;5092745;28;20020;-83
2022/11/13 15:06:39;;;;;;;5.05;3.35;;;;;;;;;;5090245;28;20015;-84